Terminal Aerodrome Forecast
Issued by NWS

Home | Current Version | Previous Version | Text Only | Print | Product List | Glossary On
Versions: 1 2 3 4 5 6 7 8 9 10 11 12 13 14 15 16 17 18 19 20 21 22 23 24 25 26 27 28 29 30
000
FTUS44 KFWD 210300 AAC
TAFAFW
TAF AMD
KAFW 210303Z 2103/2124 07005KT 5SM -RA BR SCT025 OVC070
      TEMPO 2103/2105 2SM -RA BR BKN025
     FM210600 18010KT P6SM BKN035
     FM210800 19008KT P6SM BKN015
     FM211700 19013KT P6SM SCT030 SCT100 SCT250
     FM212000 17008KT P6SM VCTS BKN050CB=

USA.gov is the U.S. government's official web portal to all federal, state and local government web resources and services.